createdAt,value
2022-12-08T00:01:14.787Z,0.85
2022-12-08T00:03:42.592Z,1.27
2022-12-08T00:06:50.317Z,0.68
2022-12-08T00:09:40.124Z,0.57
2022-12-08T00:12:16.774Z,0.63
2022-12-08T00:14:46.703Z,0.80
2022-12-08T00:17:15.773Z,0.70
2022-12-08T00:19:43.376Z,0.60
2022-12-08T00:22:12.490Z,0.65
2022-12-08T00:24:41.273Z,0.70
2022-12-08T00:27:09.756Z,0.70
2022-12-08T00:29:37.171Z,0.80
2022-12-08T00:32:04.965Z,0.60
2022-12-08T00:34:32.985Z,0.55
2022-12-08T00:37:00.137Z,0.60
2022-12-08T00:39:27.270Z,0.60
2022-12-08T00:42:12.223Z,0.70
2022-12-08T00:44:42.706Z,0.50
2022-12-08T00:47:11.485Z,0.55
2022-12-08T00:49:38.505Z,0.50
2022-12-08T00:52:05.801Z,0.45
2022-12-08T00:54:32.843Z,0.50
2022-12-08T00:56:59.775Z,0.40
2022-12-08T00:59:26.726Z,0.60
2022-12-08T01:01:53.627Z,0.60
2022-12-08T01:04:20.683Z,0.65
2022-12-08T01:06:48.288Z,0.60
2022-12-08T01:09:16.862Z,0.70
2022-12-08T01:14:12.709Z,0.60
2022-12-08T01:16:41.534Z,0.55
2022-12-08T01:19:11.877Z,0.45
2022-12-08T01:21:39.331Z,0.60
2022-12-08T01:24:07.127Z,0.50
2022-12-08T01:26:34.094Z,0.57
2022-12-08T01:29:02.197Z,0.30
2022-12-08T01:31:29.271Z,0.40
2022-12-08T01:33:57.000Z,0.47
2022-12-08T01:36:26.885Z,0.50
2022-12-08T01:38:54.947Z,0.40
2022-12-08T01:41:25.148Z,0.50
2022-12-08T01:44:10.883Z,0.40
2022-12-08T01:46:40.764Z,0.50
2022-12-08T01:49:37.597Z,0.40
2022-12-08T01:52:16.402Z,0.57
2022-12-08T01:55:00.127Z,0.50
2022-12-08T01:57:42.391Z,0.40
2022-12-08T02:00:13.693Z,0.60
2022-12-08T02:02:52.742Z,0.43
2022-12-08T02:05:22.796Z,0.40
2022-12-08T02:07:50.375Z,0.50
2022-12-08T02:10:20.209Z,0.40
2022-12-08T02:12:49.326Z,0.60
2022-12-08T02:15:16.551Z,0.50
2022-12-08T02:18:41.467Z,0.40
2022-12-08T02:21:18.470Z,0.50
2022-12-08T02:24:00.159Z,0.50
2022-12-08T02:26:27.013Z,0.60
2022-12-08T02:29:03.168Z,0.57
2022-12-08T02:31:56.940Z,0.50
2022-12-08T02:34:36.876Z,0.50
2022-12-08T02:37:41.352Z,0.40
2022-12-08T02:40:39.745Z,0.50
2022-12-08T02:45:50.704Z,0.40
2022-12-08T02:48:17.807Z,0.60
2022-12-08T02:50:44.770Z,0.40
2022-12-08T02:56:14.596Z,0.60
2022-12-08T02:59:10.339Z,0.63
2022-12-08T03:01:56.468Z,0.57
2022-12-08T03:04:42.557Z,0.68
2022-12-08T03:07:22.797Z,0.50
2022-12-08T03:10:19.425Z,0.65
2022-12-08T03:12:52.643Z,0.50
2022-12-08T03:15:21.538Z,0.55
2022-12-08T03:17:56.092Z,0.40
2022-12-08T03:20:25.794Z,0.70
2022-12-08T03:22:56.427Z,0.50
2022-12-08T03:25:27.541Z,0.70
2022-12-08T03:27:54.588Z,0.65
2022-12-08T03:30:21.652Z,0.68
2022-12-08T03:32:59.017Z,0.55
2022-12-08T03:35:33.094Z,0.80
2022-12-08T03:38:05.749Z,0.40
2022-12-08T03:40:32.743Z,0.50
2022-12-08T03:42:59.985Z,0.40
2022-12-08T03:45:27.168Z,0.50
2022-12-08T03:47:54.112Z,0.40
2022-12-08T03:50:21.225Z,0.47
2022-12-08T03:52:48.491Z,0.40
2022-12-08T03:55:16.242Z,0.40
2022-12-08T03:57:43.400Z,0.40
2022-12-08T04:00:14.968Z,0.40
2022-12-08T04:02:41.937Z,0.45
2022-12-08T04:05:09.945Z,0.60
2022-12-08T04:07:37.031Z,0.43
2022-12-08T04:10:05.606Z,0.50
2022-12-08T04:12:32.791Z,0.40
2022-12-08T04:14:59.725Z,0.50
2022-12-08T04:17:27.207Z,0.50
2022-12-08T04:19:54.160Z,0.60
2022-12-08T04:22:21.151Z,0.43
2022-12-08T04:24:48.310Z,0.50
2022-12-08T04:27:15.293Z,0.40
2022-12-08T04:29:42.220Z,0.40
2022-12-08T04:32:09.179Z,0.35
2022-12-08T04:34:36.090Z,0.50
2022-12-08T04:37:03.047Z,0.57
2022-12-08T04:39:30.013Z,0.50
2022-12-08T04:41:56.892Z,0.60
2022-12-08T04:44:23.872Z,0.40
2022-12-08T04:46:50.846Z,0.43
2022-12-08T04:49:17.802Z,0.47
2022-12-08T04:51:44.708Z,0.60
2022-12-08T04:54:11.640Z,0.50
2022-12-08T04:56:38.609Z,0.50
2022-12-08T04:59:05.616Z,0.45
2022-12-08T05:01:32.656Z,0.50
2022-12-08T05:03:59.714Z,0.40
2022-12-08T05:06:26.681Z,0.60
2022-12-08T05:08:53.670Z,0.55
2022-12-08T05:11:20.740Z,0.60
2022-12-08T05:13:47.865Z,0.50
2022-12-08T05:16:15.958Z,0.52
2022-12-08T05:18:44.354Z,0.60
2022-12-08T05:21:11.666Z,0.52
2022-12-08T05:23:38.678Z,0.80
2022-12-08T05:26:05.874Z,0.70
2022-12-08T05:28:42.667Z,0.43
2022-12-08T05:31:15.104Z,0.67
2022-12-08T05:33:42.714Z,0.57
2022-12-08T05:36:12.249Z,0.80
2022-12-08T05:38:39.285Z,0.63
2022-12-08T05:41:07.260Z,0.60
2022-12-08T05:43:34.580Z,0.60
2022-12-08T05:46:02.077Z,0.68
2022-12-08T05:48:29.139Z,0.90
2022-12-08T05:50:56.520Z,0.63
2022-12-08T05:53:23.594Z,0.60
2022-12-08T05:55:50.508Z,0.80
2022-12-08T05:58:20.580Z,0.80
2022-12-08T06:00:48.545Z,0.85
2022-12-08T06:03:18.312Z,0.90
2022-12-08T06:05:46.791Z,0.82
2022-12-08T06:08:13.902Z,0.70
2022-12-08T06:10:42.549Z,0.98
2022-12-08T06:15:37.600Z,0.60
2022-12-08T06:18:07.645Z,0.95
2022-12-08T06:20:34.839Z,0.47
2022-12-08T06:23:02.193Z,0.68
2022-12-08T06:25:29.411Z,0.50
2022-12-08T06:27:56.447Z,0.60
2022-12-08T06:30:23.449Z,0.52
2022-12-08T06:32:50.464Z,0.60
2022-12-08T06:35:17.467Z,0.57
2022-12-08T06:37:44.451Z,0.60
2022-12-08T06:40:11.836Z,0.70
2022-12-08T06:42:44.557Z,0.70
2022-12-08T06:45:13.285Z,0.80
2022-12-08T06:47:40.360Z,1.00
2022-12-08T06:50:08.885Z,1.02
2022-12-08T06:52:43.190Z,0.85
2022-12-08T06:55:35.496Z,1.45
2022-12-08T06:58:01.453Z,1.67
2022-12-08T07:00:28.396Z,1.25
2022-12-08T07:02:55.408Z,0.95
2022-12-08T07:05:22.368Z,1.02
2022-12-08T07:07:49.330Z,0.98
2022-12-08T07:10:16.421Z,1.20
2022-12-08T07:12:43.317Z,1.10
2022-12-08T07:15:10.758Z,1.10
2022-12-08T07:17:37.758Z,1.10
2022-12-08T07:20:08.378Z,0.98
2022-12-08T07:22:35.372Z,0.93
2022-12-08T07:25:02.354Z,0.82
2022-12-08T07:27:29.343Z,0.75
2022-12-08T07:29:56.317Z,0.73
2022-12-08T07:32:24.228Z,0.80
2022-12-08T07:34:51.168Z,0.85
2022-12-08T07:37:18.145Z,0.70
2022-12-08T07:39:45.150Z,0.68
2022-12-08T07:42:12.181Z,0.80
2022-12-08T07:44:39.390Z,0.70
2022-12-08T07:47:06.304Z,0.57
2022-12-08T07:49:33.338Z,0.77
2022-12-08T07:52:00.318Z,0.52
2022-12-08T07:54:28.160Z,0.60
2022-12-08T07:56:58.138Z,0.70
2022-12-08T07:59:25.082Z,0.95
2022-12-08T08:02:06.565Z,0.85
2022-12-08T08:04:39.265Z,0.80
2022-12-08T08:07:06.502Z,0.70
2022-12-08T08:09:34.374Z,0.80
2022-12-08T08:12:29.680Z,0.95
2022-12-08T08:14:48.537Z,0.90
2022-12-08T08:17:15.666Z,0.77
2022-12-08T08:19:42.734Z,0.93
2022-12-08T08:22:09.690Z,0.98
2022-12-08T08:24:40.325Z,1.08
2022-12-08T08:27:11.541Z,1.42
2022-12-08T08:29:38.487Z,1.20
2022-12-08T08:32:05.443Z,0.95
2022-12-08T08:34:32.503Z,1.30
2022-12-08T08:36:59.662Z,0.90
2022-12-08T08:39:27.033Z,0.90
2022-12-08T08:41:54.026Z,0.90
2022-12-08T08:44:20.920Z,0.93
2022-12-08T08:46:48.013Z,1.00
2022-12-08T08:49:15.651Z,0.93
2022-12-08T08:51:42.792Z,0.95
2022-12-08T08:54:09.880Z,0.90
2022-12-08T08:56:36.798Z,0.82
2022-12-08T08:59:03.976Z,0.80
2022-12-08T09:01:31.067Z,0.70
2022-12-08T09:03:58.567Z,0.80
2022-12-08T09:06:28.278Z,0.85
2022-12-08T09:08:55.725Z,0.77
2022-12-08T09:11:23.675Z,0.82
2022-12-08T09:13:52.158Z,0.90
2022-12-08T09:16:19.908Z,1.10
2022-12-08T09:18:48.345Z,0.80
2022-12-08T09:21:24.476Z,0.90
2022-12-08T09:23:56.025Z,0.80
2022-12-08T09:26:23.674Z,1.00
2022-12-08T09:28:52.070Z,0.95
2022-12-08T09:31:20.648Z,0.85
2022-12-08T09:36:15.720Z,0.90
2022-12-08T09:38:42.708Z,1.02
2022-12-08T09:41:23.699Z,0.80
2022-12-08T09:43:53.515Z,0.80
2022-12-08T09:46:21.663Z,0.70
2022-12-08T09:48:56.192Z,0.70
2022-12-08T09:51:31.570Z,0.65
2022-12-08T09:54:34.512Z,0.43
2022-12-08T09:57:07.324Z,0.60
2022-12-08T09:59:35.607Z,0.60
2022-12-08T10:02:03.796Z,0.52
2022-12-08T10:04:38.359Z,0.63
2022-12-08T10:07:14.386Z,0.55
2022-12-08T10:10:03.488Z,0.73
2022-12-08T10:12:54.229Z,0.90
2022-12-08T10:15:40.004Z,0.77
2022-12-08T10:18:34.209Z,0.80
2022-12-08T10:21:30.353Z,0.80
2022-12-08T10:24:06.009Z,0.80
2022-12-08T10:26:33.199Z,0.90
2022-12-08T10:29:03.054Z,1.10
2022-12-08T10:31:31.146Z,1.50
2022-12-08T10:34:01.593Z,1.25
2022-12-08T10:36:52.822Z,1.27
2022-12-08T10:39:43.962Z,1.17
2022-12-08T10:42:14.292Z,1.23
2022-12-08T10:45:03.139Z,1.02
2022-12-08T10:47:35.609Z,1.30
2022-12-08T10:50:19.605Z,1.00
2022-12-08T10:53:14.185Z,0.70
2022-12-08T10:56:03.049Z,0.93
2022-12-08T10:58:33.982Z,0.77
2022-12-08T11:01:12.360Z,1.08
2022-12-08T11:06:25.647Z,1.15
2022-12-08T11:08:55.647Z,1.63
2022-12-08T11:11:37.464Z,1.20
2022-12-08T11:14:08.540Z,0.95
2022-12-08T11:16:35.995Z,0.98
2022-12-08T11:19:06.800Z,1.08
2022-12-08T11:21:37.326Z,0.70
2022-12-08T11:24:37.457Z,0.95
2022-12-08T11:27:06.565Z,0.70
2022-12-08T11:29:36.056Z,0.93
2022-12-08T11:32:14.592Z,0.90
2022-12-08T11:37:34.301Z,1.20
2022-12-08T11:40:08.157Z,1.00
2022-12-08T11:42:43.140Z,1.20
2022-12-08T11:45:20.315Z,1.13
2022-12-08T11:47:57.093Z,1.08
2022-12-08T11:50:40.740Z,1.30
2022-12-08T11:53:20.477Z,1.23
2022-12-08T11:55:57.235Z,1.20
2022-12-08T11:58:38.176Z,1.27
2022-12-08T12:01:05.446Z,1.20
2022-12-08T12:03:43.902Z,0.80
2022-12-08T12:09:27.189Z,1.40
2022-12-08T12:12:36.397Z,1.10
2022-12-08T12:15:29.660Z,1.10
2022-12-08T12:18:13.394Z,1.42
2022-12-08T12:21:00.964Z,1.00
2022-12-08T12:23:27.915Z,1.15
2022-12-08T12:26:03.370Z,1.33
2022-12-08T12:28:41.535Z,1.10
2022-12-08T12:31:12.177Z,1.00
2022-12-08T12:33:39.643Z,0.95
2022-12-08T12:36:12.315Z,1.02
2022-12-08T12:39:01.668Z,1.15
2022-12-08T12:41:52.979Z,1.45
2022-12-08T12:44:23.981Z,1.65
2022-12-08T12:46:51.056Z,1.52
2022-12-08T12:49:40.263Z,1.73
2022-12-08T12:52:10.369Z,1.30
2022-12-08T12:54:42.954Z,1.30
2022-12-08T12:57:09.930Z,1.35
2022-12-08T12:59:51.565Z,1.05
2022-12-08T13:02:55.774Z,1.02
2022-12-08T13:05:36.444Z,1.05
2022-12-08T13:08:23.024Z,1.00
2022-12-08T13:11:16.650Z,1.02
2022-12-08T13:13:58.792Z,0.80
2022-12-08T13:16:28.210Z,0.60
2022-12-08T13:19:02.487Z,1.00
2022-12-08T13:21:35.915Z,0.82
2022-12-08T13:24:17.743Z,0.70
2022-12-08T13:26:44.824Z,0.80
2022-12-08T13:29:17.755Z,0.70
2022-12-08T13:31:51.019Z,0.82
2022-12-08T13:34:30.131Z,0.73
2022-12-08T13:40:08.764Z,0.90
2022-12-08T13:43:01.870Z,0.90
2022-12-08T13:46:20.121Z,0.60
2022-12-08T13:57:29.581Z,0.93
2022-12-08T14:00:01.832Z,0.90
2022-12-08T14:02:48.133Z,0.70
2022-12-08T14:05:20.340Z,0.98
2022-12-08T14:07:52.436Z,0.95
2022-12-08T14:10:27.327Z,1.00
2022-12-08T14:13:06.356Z,0.88
2022-12-08T14:15:38.326Z,0.85
2022-12-08T14:18:07.220Z,0.82
2022-12-08T14:20:57.661Z,0.75
2022-12-08T14:23:22.773Z,0.75
2022-12-08T14:25:49.968Z,0.90
2022-12-08T14:28:17.112Z,1.20
2022-12-08T14:30:44.372Z,1.00
2022-12-08T14:33:19.047Z,1.00
2022-12-08T14:35:52.607Z,1.02
2022-12-08T14:38:21.827Z,1.10
2022-12-08T14:41:01.148Z,1.52
2022-12-08T14:43:29.809Z,1.20
2022-12-08T14:48:36.189Z,1.17
2022-12-08T14:51:16.304Z,1.25
2022-12-08T14:53:47.418Z,1.25
2022-12-08T14:56:39.687Z,1.23
2022-12-08T14:59:17.503Z,0.70
2022-12-08T15:01:46.126Z,1.20
2022-12-08T15:07:01.213Z,1.20
2022-12-08T15:09:32.430Z,1.00
2022-12-08T15:12:26.162Z,1.20
2022-12-08T15:14:56.081Z,1.00
2022-12-08T15:20:00.825Z,1.00
2022-12-08T15:22:29.553Z,1.00
2022-12-08T15:24:57.604Z,1.10
2022-12-08T15:27:25.848Z,1.10
2022-12-08T15:29:53.317Z,1.52
2022-12-08T15:32:22.946Z,1.40
2022-12-08T15:34:51.511Z,2.00
2022-12-08T15:39:53.567Z,2.00
2022-12-08T15:42:20.563Z,1.95
2022-12-08T15:44:47.834Z,1.98
2022-12-08T15:47:25.058Z,1.80
2022-12-08T15:49:53.099Z,1.90
2022-12-08T15:52:23.254Z,1.88
2022-12-08T15:54:50.638Z,1.80
2022-12-08T15:58:17.394Z,2.03
2022-12-08T16:00:50.499Z,1.88
2022-12-08T16:07:26.835Z,2.22
2022-12-08T16:09:13.129Z,2.05
2022-12-08T16:12:08.993Z,2.60
2022-12-08T16:17:24.558Z,2.50
2022-12-08T16:19:51.818Z,2.50
2022-12-08T16:25:18.136Z,2.80
2022-12-08T16:28:23.081Z,2.80
2022-12-08T16:30:36.112Z,2.90
2022-12-08T16:33:03.197Z,3.00
2022-12-08T16:35:30.306Z,2.92
2022-12-08T16:37:57.979Z,2.90
2022-12-08T16:40:25.314Z,3.50
2022-12-08T16:42:52.372Z,3.47
2022-12-08T16:45:25.564Z,4.22
2022-12-08T16:48:01.835Z,4.32
2022-12-08T16:50:31.464Z,3.45
2022-12-08T16:53:00.883Z,4.68
2022-12-08T16:55:28.209Z,4.38
2022-12-08T16:57:56.187Z,4.38
2022-12-08T17:00:25.628Z,3.17
2022-12-08T17:02:59.288Z,3.83
2022-12-08T17:05:27.102Z,3.55
2022-12-08T17:07:54.949Z,3.97
2022-12-08T17:10:25.311Z,3.80
2022-12-08T17:12:53.103Z,3.20
2022-12-08T17:15:23.193Z,3.10
2022-12-08T17:17:51.279Z,3.22
2022-12-08T17:20:26.476Z,3.63
2022-12-08T17:22:58.163Z,3.40
2022-12-08T17:25:27.979Z,3.38
2022-12-08T17:27:56.400Z,2.78
2022-12-08T17:30:23.865Z,2.90
2022-12-08T17:32:52.842Z,2.70
2022-12-08T17:35:20.104Z,2.88
2022-12-08T17:37:47.500Z,2.60
2022-12-08T17:40:14.583Z,3.20
2022-12-08T17:42:42.398Z,3.75
2022-12-08T17:45:09.887Z,3.47
2022-12-08T17:47:37.770Z,3.13
2022-12-08T17:50:06.581Z,3.20
2022-12-08T17:52:34.156Z,3.45
2022-12-08T17:55:01.300Z,3.88
2022-12-08T17:57:28.379Z,3.78
2022-12-08T17:59:55.556Z,3.22
2022-12-08T18:02:22.732Z,3.28
2022-12-08T18:04:49.775Z,3.90
2022-12-08T18:07:16.791Z,4.05
2022-12-08T18:09:43.859Z,4.10
2022-12-08T18:12:10.864Z,4.43
2022-12-08T18:14:37.908Z,3.50
2022-12-08T18:17:04.984Z,3.28
2022-12-08T18:19:32.056Z,3.25
2022-12-08T18:21:59.059Z,3.20
2022-12-08T18:24:26.269Z,3.08
2022-12-08T18:26:53.477Z,4.05
2022-12-08T18:29:21.964Z,4.60
2022-12-08T18:31:49.846Z,5.03
2022-12-08T18:34:19.016Z,5.38
2022-12-08T18:36:46.287Z,6.57
2022-12-08T18:39:22.417Z,6.60
2022-12-08T18:41:49.897Z,7.55
2022-12-08T18:44:17.874Z,6.68
2022-12-08T18:46:45.182Z,6.03
2022-12-08T18:49:14.190Z,5.82
2022-12-08T18:51:41.535Z,5.38
2022-12-08T18:54:09.036Z,5.90
2022-12-08T18:56:36.908Z,6.30
2022-12-08T18:59:06.758Z,5.70
2022-12-08T19:01:36.427Z,5.40
2022-12-08T19:06:54.810Z,3.88
2022-12-08T19:09:22.746Z,3.58
2022-12-08T19:11:50.232Z,3.60
2022-12-08T19:14:21.260Z,3.40
2022-12-08T19:16:51.497Z,2.60
2022-12-08T19:19:18.543Z,2.78
2022-12-08T19:21:46.693Z,2.55
2022-12-08T19:24:18.631Z,2.90
2022-12-08T19:26:45.644Z,3.55
2022-12-08T19:29:13.099Z,3.17
2022-12-08T19:31:40.886Z,3.33
2022-12-08T19:34:09.316Z,3.10
2022-12-08T19:36:42.265Z,2.95
2022-12-08T19:39:35.870Z,3.05
2022-12-08T19:42:22.386Z,3.10
2022-12-08T19:44:55.604Z,2.50
2022-12-08T19:47:25.180Z,2.70
2022-12-08T19:49:54.928Z,3.35
2022-12-08T19:52:22.369Z,2.90
2022-12-08T19:54:49.343Z,3.33
2022-12-08T19:57:16.430Z,3.05
2022-12-08T19:59:43.473Z,3.00
2022-12-08T20:02:11.354Z,3.40
2022-12-08T20:04:38.475Z,3.40
2022-12-08T20:07:05.514Z,3.67
2022-12-08T20:09:32.517Z,3.78
2022-12-08T20:11:59.589Z,4.05
2022-12-08T20:14:26.632Z,4.07
2022-12-08T20:16:53.765Z,3.92
2022-12-08T20:19:21.050Z,3.85
2022-12-08T20:21:48.860Z,3.30
2022-12-08T20:24:17.275Z,4.03
2022-12-08T20:26:46.140Z,3.40
2022-12-08T20:29:16.951Z,3.63
2022-12-08T20:31:44.268Z,2.90
2022-12-08T20:34:19.175Z,3.28
2022-12-08T20:36:46.874Z,3.70
2022-12-08T20:39:16.585Z,3.10
2022-12-08T20:41:45.419Z,3.33
2022-12-08T20:44:12.588Z,3.13
2022-12-08T20:46:41.861Z,2.90
2022-12-08T20:49:12.238Z,3.45
2022-12-08T20:51:39.212Z,3.45
2022-12-08T20:54:06.388Z,3.85
2022-12-08T20:56:33.544Z,3.70
2022-12-08T20:59:00.785Z,3.45
2022-12-08T21:01:28.762Z,3.10
2022-12-08T21:03:56.315Z,3.13
2022-12-08T21:06:25.104Z,3.03
2022-12-08T21:11:19.264Z,3.10
2022-12-08T21:13:46.870Z,3.33
2022-12-08T21:16:15.617Z,3.60
2022-12-08T21:18:43.768Z,3.60
2022-12-08T21:21:14.016Z,3.20
2022-12-08T21:23:44.725Z,2.85
2022-12-08T21:26:14.142Z,2.80
2022-12-08T21:28:41.331Z,3.17
2022-12-08T21:31:15.475Z,3.15
2022-12-08T21:33:42.801Z,3.22
2022-12-08T21:36:15.688Z,3.20
2022-12-08T21:38:44.555Z,3.55
2022-12-08T21:41:14.506Z,3.05
2022-12-08T21:43:42.136Z,3.00
2022-12-08T21:46:20.815Z,3.72
2022-12-08T21:48:48.147Z,3.50
2022-12-08T21:51:15.217Z,3.13
2022-12-08T21:53:42.357Z,3.22
2022-12-08T21:56:09.837Z,3.90
2022-12-08T21:58:36.992Z,3.40
2022-12-08T22:01:11.968Z,3.40
2022-12-08T22:03:40.487Z,3.28
2022-12-08T22:08:39.769Z,3.05
2022-12-08T22:11:08.082Z,2.90
2022-12-08T22:13:36.989Z,2.90
2022-12-08T22:16:06.733Z,2.50
2022-12-08T22:18:34.776Z,2.55
2022-12-08T22:21:02.986Z,2.50
2022-12-08T22:23:30.069Z,2.30
2022-12-08T22:26:01.031Z,2.55
2022-12-08T22:28:34.383Z,2.67
2022-12-08T22:31:07.442Z,2.88
2022-12-08T22:33:34.499Z,2.45
2022-12-08T22:36:09.858Z,1.90
2022-12-08T22:38:37.971Z,1.88
2022-12-08T22:41:05.851Z,1.90
2022-12-08T22:43:34.033Z,2.03
2022-12-08T22:46:01.360Z,2.05
2022-12-08T22:48:28.774Z,1.75
2022-12-08T22:51:02.353Z,1.80
2022-12-08T22:53:32.687Z,2.10
2022-12-08T22:55:59.972Z,2.10
2022-12-08T22:58:29.011Z,1.30
2022-12-08T23:00:56.096Z,1.83
2022-12-08T23:03:23.393Z,1.63
2022-12-08T23:05:50.999Z,1.90
2022-12-08T23:08:18.948Z,1.92
2022-12-08T23:10:47.143Z,1.75
2022-12-08T23:13:14.928Z,2.20
2022-12-08T23:15:42.096Z,1.83
2022-12-08T23:18:16.399Z,2.53
2022-12-08T23:20:43.818Z,2.20
2022-12-08T23:23:10.843Z,2.35
2022-12-08T23:25:42.276Z,2.35
2022-12-08T23:28:10.301Z,2.63
2022-12-08T23:30:40.791Z,3.03
2022-12-08T23:33:08.398Z,2.50
2022-12-08T23:35:35.545Z,2.10
2022-12-08T23:38:02.535Z,2.30
2022-12-08T23:40:29.614Z,2.20
2022-12-08T23:42:56.590Z,1.98
2022-12-08T23:45:23.541Z,2.08
2022-12-08T23:47:50.496Z,2.25
2022-12-08T23:50:17.661Z,2.30
2022-12-08T23:52:48.662Z,2.83
2022-12-08T23:55:15.639Z,3.13
2022-12-08T23:57:42.585Z,4.13
